Kinross, Iowa
Current Conditions -  °F | °C
As of 10:55 AM on Sunday 28 Dec 2014 (Local Time) from KOOA Reporting Station
Clear Clear  
Wind Chill: 21°   Ceiling: Unl
Heat Index: 28°   Visibility: 10mi
Dew Point: 22°   Wind: 7mph
Humidity: 77%   Direction: 200°SSW
Pressure: 30.19"   Gusts: NA
Location:  41.4707°N, 92.1243°W
Report Text: KOOA 281655Z AUTO 20006KT 10SM CLR M02/M06 A3019 RMK AO2 T10221058
Loading
Personal Weather Stations






























Interactive Weather Map New forecast layout! Learn more

10-Day Weather Forecast

Advertisements
Track Severe Weather on mobile